sensor_id;sensor_type;location;lat;lon;timestamp;P1;durP1;ratioP1;P2;durP2;ratioP2
38783;SDS011;24531;45.502;12.238;2023-05-07T00:00:37;6.55;;;5.88;;
38783;SDS011;24531;45.502;12.238;2023-05-07T00:03:03;9.68;;;6.45;;
38783;SDS011;24531;45.502;12.238;2023-05-07T00:05:28;6.88;;;6.00;;
38783;SDS011;24531;45.502;12.238;2023-05-07T00:07:54;8.00;;;6.65;;
38783;SDS011;24531;45.502;12.238;2023-05-07T00:10:20;7.75;;;6.53;;
38783;SDS011;24531;45.502;12.238;2023-05-07T00:12:46;9.15;;;5.63;;
38783;SDS011;24531;45.502;12.238;2023-05-07T00:15:11;8.63;;;6.70;;
38783;SDS011;24531;45.502;12.238;2023-05-07T00:17:37;11.10;;;7.05;;
38783;SDS011;24531;45.502;12.238;2023-05-07T00:20:03;8.68;;;5.93;;
38783;SDS011;24531;45.502;12.238;2023-05-07T00:22:30;9.77;;;6.82;;
38783;SDS011;24531;45.502;12.238;2023-05-07T00:24:56;7.07;;;5.95;;
38783;SDS011;24531;45.502;12.238;2023-05-07T00:27:22;9.73;;;6.22;;
38783;SDS011;24531;45.502;12.238;2023-05-07T00:29:47;7.75;;;6.40;;
38783;SDS011;24531;45.502;12.238;2023-05-07T00:32:13;6.72;;;5.95;;
38783;SDS011;24531;45.502;12.238;2023-05-07T00:34:39;8.00;;;5.75;;
38783;SDS011;24531;45.502;12.238;2023-05-07T00:37:05;9.60;;;6.57;;
38783;SDS011;24531;45.502;12.238;2023-05-07T00:39:32;8.95;;;6.75;;
38783;SDS011;24531;45.502;12.238;2023-05-07T00:41:58;9.65;;;6.75;;
38783;SDS011;24531;45.502;12.238;2023-05-07T00:44:25;11.45;;;7.07;;
38783;SDS011;24531;45.502;12.238;2023-05-07T00:46:51;10.93;;;6.70;;
38783;SDS011;24531;45.502;12.238;2023-05-07T00:49:18;9.18;;;6.82;;
38783;SDS011;24531;45.502;12.238;2023-05-07T00:51:44;12.10;;;7.40;;
38783;SDS011;24531;45.502;12.238;2023-05-07T00:54:10;12.85;;;7.32;;
38783;SDS011;24531;45.502;12.238;2023-05-07T00:56:36;11.43;;;6.38;;
38783;SDS011;24531;45.502;12.238;2023-05-07T00:59:02;9.90;;;6.93;;
38783;SDS011;24531;45.502;12.238;2023-05-07T01:01:28;10.50;;;6.55;;
38783;SDS011;24531;45.502;12.238;2023-05-07T01:03:54;11.52;;;6.80;;
38783;SDS011;24531;45.502;12.238;2023-05-07T01:06:20;8.90;;;7.20;;
38783;SDS011;24531;45.502;12.238;2023-05-07T01:08:48;10.82;;;6.78;;
38783;SDS011;24531;45.502;12.238;2023-05-07T01:11:15;8.43;;;6.20;;
38783;SDS011;24531;45.502;12.238;2023-05-07T01:13:42;7.05;;;6.00;;
38783;SDS011;24531;45.502;12.238;2023-05-07T01:16:08;7.00;;;6.30;;
38783;SDS011;24531;45.502;12.238;2023-05-07T01:18:35;6.50;;;5.60;;
38783;SDS011;24531;45.502;12.238;2023-05-07T01:21:00;8.48;;;6.60;;
38783;SDS011;24531;45.502;12.238;2023-05-07T01:23:28;12.70;;;6.35;;
38783;SDS011;24531;45.502;12.238;2023-05-07T01:25:55;10.40;;;6.60;;
38783;SDS011;24531;45.502;12.238;2023-05-07T01:28:21;7.50;;;6.32;;
38783;SDS011;24531;45.502;12.238;2023-05-07T01:30:48;7.75;;;6.20;;
38783;SDS011;24531;45.502;12.238;2023-05-07T01:33:29;9.52;;;6.65;;
38783;SDS011;24531;45.502;12.238;2023-05-07T01:35:59;8.98;;;6.45;;
38783;SDS011;24531;45.502;12.238;2023-05-07T01:38:27;9.32;;;6.65;;
38783;SDS011;24531;45.502;12.238;2023-05-07T01:40:53;9.68;;;7.13;;
38783;SDS011;24531;45.502;12.238;2023-05-07T01:43:19;9.75;;;6.80;;
38783;SDS011;24531;45.502;12.238;2023-05-07T01:45:45;12.20;;;6.93;;
38783;SDS011;24531;45.502;12.238;2023-05-07T01:48:12;8.55;;;7.18;;
38783;SDS011;24531;45.502;12.238;2023-05-07T01:50:40;10.40;;;7.25;;
38783;SDS011;24531;45.502;12.238;2023-05-07T01:53:06;12.93;;;8.00;;
38783;SDS011;24531;45.502;12.238;2023-05-07T01:55:32;12.65;;;8.75;;
38783;SDS011;24531;45.502;12.238;2023-05-07T01:57:58;14.00;;;9.32;;
38783;SDS011;24531;45.502;12.238;2023-05-07T02:00:23;14.18;;;9.57;;
38783;SDS011;24531;45.502;12.238;2023-05-07T02:02:49;13.13;;;9.77;;
38783;SDS011;24531;45.502;12.238;2023-05-07T02:05:15;12.15;;;9.30;;
38783;SDS011;24531;45.502;12.238;2023-05-07T02:07:40;12.05;;;9.13;;
38783;SDS011;24531;45.502;12.238;2023-05-07T02:10:06;15.30;;;9.85;;
38783;SDS011;24531;45.502;12.238;2023-05-07T02:12:32;14.20;;;8.75;;
38783;SDS011;24531;45.502;12.238;2023-05-07T02:14:57;12.68;;;9.25;;
38783;SDS011;24531;45.502;12.238;2023-05-07T02:17:23;13.43;;;10.45;;
38783;SDS011;24531;45.502;12.238;2023-05-07T02:19:49;17.05;;;10.30;;
38783;SDS011;24531;45.502;12.238;2023-05-07T02:22:14;17.90;;;11.20;;
38783;SDS011;24531;45.502;12.238;2023-05-07T02:24:40;18.05;;;12.25;;
38783;SDS011;24531;45.502;12.238;2023-05-07T02:27:06;16.33;;;12.25;;
38783;SDS011;24531;45.502;12.238;2023-05-07T02:29:31;16.88;;;10.98;;
38783;SDS011;24531;45.502;12.238;2023-05-07T02:31:57;14.68;;;10.57;;
38783;SDS011;24531;45.502;12.238;2023-05-07T02:34:23;20.38;;;14.10;;
38783;SDS011;24531;45.502;12.238;2023-05-07T02:36:48;18.38;;;13.82;;
38783;SDS011;24531;45.502;12.238;2023-05-07T02:39:14;17.42;;;13.15;;
38783;SDS011;24531;45.502;12.238;2023-05-07T02:41:40;20.67;;;14.65;;
38783;SDS011;24531;45.502;12.238;2023-05-07T02:44:06;20.58;;;14.70;;
38783;SDS011;24531;45.502;12.238;2023-05-07T02:46:31;22.15;;;14.95;;
38783;SDS011;24531;45.502;12.238;2023-05-07T02:48:57;17.52;;;12.52;;
38783;SDS011;24531;45.502;12.238;2023-05-07T02:51:23;16.23;;;13.00;;
38783;SDS011;24531;45.502;12.238;2023-05-07T02:53:48;17.65;;;12.57;;
38783;SDS011;24531;45.502;12.238;2023-05-07T02:56:14;17.42;;;12.48;;
38783;SDS011;24531;45.502;12.238;2023-05-07T02:58:40;20.15;;;12.88;;
38783;SDS011;24531;45.502;12.238;2023-05-07T03:01:07;15.98;;;12.27;;
38783;SDS011;24531;45.502;12.238;2023-05-07T03:03:34;16.88;;;12.18;;
38783;SDS011;24531;45.502;12.238;2023-05-07T03:06:00;16.65;;;12.32;;
38783;SDS011;24531;45.502;12.238;2023-05-07T03:08:26;16.00;;;12.57;;
38783;SDS011;24531;45.502;12.238;2023-05-07T03:10:52;22.27;;;12.52;;
38783;SDS011;24531;45.502;12.238;2023-05-07T03:13:17;20.00;;;13.18;;
38783;SDS011;24531;45.502;12.238;2023-05-07T03:15:43;19.42;;;13.32;;
38783;SDS011;24531;45.502;12.238;2023-05-07T03:18:09;20.23;;;13.38;;
38783;SDS011;24531;45.502;12.238;2023-05-07T03:20:35;18.02;;;13.60;;
38783;SDS011;24531;45.502;12.238;2023-05-07T03:23:01;14.93;;;11.70;;
38783;SDS011;24531;45.502;12.238;2023-05-07T03:25:27;15.52;;;12.25;;
38783;SDS011;24531;45.502;12.238;2023-05-07T03:27:54;13.68;;;11.00;;
38783;SDS011;24531;45.502;12.238;2023-05-07T03:30:20;17.05;;;12.30;;
38783;SDS011;24531;45.502;12.238;2023-05-07T03:32:46;16.77;;;13.55;;
38783;SDS011;24531;45.502;12.238;2023-05-07T03:35:12;16.08;;;11.90;;
38783;SDS011;24531;45.502;12.238;2023-05-07T03:37:38;15.80;;;11.88;;
38783;SDS011;24531;45.502;12.238;2023-05-07T03:40:04;17.27;;;12.60;;
38783;SDS011;24531;45.502;12.238;2023-05-07T03:42:30;17.20;;;12.55;;
38783;SDS011;24531;45.502;12.238;2023-05-07T03:44:56;17.60;;;12.40;;
38783;SDS011;24531;45.502;12.238;2023-05-07T03:47:22;19.52;;;13.68;;
38783;SDS011;24531;45.502;12.238;2023-05-07T03:49:47;17.58;;;12.77;;
38783;SDS011;24531;45.502;12.238;2023-05-07T03:52:14;18.63;;;12.32;;
38783;SDS011;24531;45.502;12.238;2023-05-07T03:54:40;16.13;;;12.77;;
38783;SDS011;24531;45.502;12.238;2023-05-07T03:57:05;15.25;;;12.88;;
38783;SDS011;24531;45.502;12.238;2023-05-07T03:59:31;18.15;;;12.23;;
38783;SDS011;24531;45.502;12.238;2023-05-07T04:01:57;16.55;;;12.90;;
38783;SDS011;24531;45.502;12.238;2023-05-07T04:04:23;17.92;;;13.57;;
38783;SDS011;24531;45.502;12.238;2023-05-07T04:06:49;19.83;;;13.77;;
38783;SDS011;24531;45.502;12.238;2023-05-07T04:09:14;17.10;;;13.40;;
38783;SDS011;24531;45.502;12.238;2023-05-07T04:11:40;18.90;;;13.45;;
38783;SDS011;24531;45.502;12.238;2023-05-07T04:14:06;17.00;;;12.63;;
38783;SDS011;24531;45.502;12.238;2023-05-07T04:16:31;17.20;;;13.48;;
38783;SDS011;24531;45.502;12.238;2023-05-07T04:18:57;16.88;;;13.13;;
38783;SDS011;24531;45.502;12.238;2023-05-07T04:21:23;17.83;;;13.30;;
38783;SDS011;24531;45.502;12.238;2023-05-07T04:23:48;18.85;;;13.60;;
38783;SDS011;24531;45.502;12.238;2023-05-07T04:26:14;18.60;;;14.43;;
38783;SDS011;24531;45.502;12.238;2023-05-07T04:28:41;16.83;;;13.45;;
38783;SDS011;24531;45.502;12.238;2023-05-07T04:31:07;18.55;;;14.48;;
38783;SDS011;24531;45.502;12.238;2023-05-07T04:33:33;20.80;;;13.95;;
38783;SDS011;24531;45.502;12.238;2023-05-07T04:36:02;19.08;;;14.45;;
38783;SDS011;24531;45.502;12.238;2023-05-07T04:38:29;19.50;;;14.27;;
38783;SDS011;24531;45.502;12.238;2023-05-07T04:40:56;20.83;;;16.13;;
38783;SDS011;24531;45.502;12.238;2023-05-07T04:43:22;19.75;;;14.23;;
38783;SDS011;24531;45.502;12.238;2023-05-07T04:45:49;23.40;;;15.55;;
38783;SDS011;24531;45.502;12.238;2023-05-07T04:48:15;19.05;;;14.82;;
38783;SDS011;24531;45.502;12.238;2023-05-07T04:50:44;17.65;;;14.55;;
38783;SDS011;24531;45.502;12.238;2023-05-07T04:53:12;21.52;;;15.43;;
38783;SDS011;24531;45.502;12.238;2023-05-07T04:55:37;18.88;;;14.73;;
38783;SDS011;24531;45.502;12.238;2023-05-07T04:58:03;22.48;;;16.33;;
38783;SDS011;24531;45.502;12.238;2023-05-07T05:00:30;20.63;;;15.63;;
38783;SDS011;24531;45.502;12.238;2023-05-07T05:02:55;24.63;;;16.52;;
38783;SDS011;24531;45.502;12.238;2023-05-07T05:05:21;20.85;;;14.73;;
38783;SDS011;24531;45.502;12.238;2023-05-07T05:07:46;18.67;;;15.15;;
38783;SDS011;24531;45.502;12.238;2023-05-07T05:10:12;23.45;;;16.40;;
38783;SDS011;24531;45.502;12.238;2023-05-07T05:12:38;21.85;;;14.45;;
38783;SDS011;24531;45.502;12.238;2023-05-07T05:15:04;17.25;;;14.05;;
38783;SDS011;24531;45.502;12.238;2023-05-07T05:17:30;19.75;;;13.98;;
38783;SDS011;24531;45.502;12.238;2023-05-07T05:19:56;18.42;;;14.02;;
38783;SDS011;24531;45.502;12.238;2023-05-07T05:22:21;17.55;;;14.23;;
38783;SDS011;24531;45.502;12.238;2023-05-07T05:24:47;21.75;;;14.77;;
38783;SDS011;24531;45.502;12.238;2023-05-07T05:27:12;19.52;;;15.07;;
38783;SDS011;24531;45.502;12.238;2023-05-07T05:29:39;19.38;;;15.35;;
38783;SDS011;24531;45.502;12.238;2023-05-07T05:32:04;17.65;;;14.32;;
38783;SDS011;24531;45.502;12.238;2023-05-07T05:34:30;23.50;;;15.18;;
38783;SDS011;24531;45.502;12.238;2023-05-07T05:36:56;19.73;;;14.88;;
38783;SDS011;24531;45.502;12.238;2023-05-07T05:39:21;18.50;;;14.00;;
38783;SDS011;24531;45.502;12.238;2023-05-07T05:41:48;23.25;;;15.05;;
38783;SDS011;24531;45.502;12.238;2023-05-07T05:44:13;23.48;;;15.02;;
38783;SDS011;24531;45.502;12.238;2023-05-07T05:46:39;18.95;;;13.50;;
38783;SDS011;24531;45.502;12.238;2023-05-07T05:49:05;17.58;;;13.75;;
38783;SDS011;24531;45.502;12.238;2023-05-07T05:51:30;17.33;;;12.98;;
38783;SDS011;24531;45.502;12.238;2023-05-07T05:53:56;16.48;;;13.00;;
38783;SDS011;24531;45.502;12.238;2023-05-07T05:56:22;14.82;;;12.48;;
38783;SDS011;24531;45.502;12.238;2023-05-07T05:58:47;17.15;;;11.95;;
38783;SDS011;24531;45.502;12.238;2023-05-07T06:01:13;15.00;;;11.13;;
38783;SDS011;24531;45.502;12.238;2023-05-07T06:03:38;13.20;;;10.40;;
38783;SDS011;24531;45.502;12.238;2023-05-07T06:06:04;12.00;;;9.77;;
38783;SDS011;24531;45.502;12.238;2023-05-07T06:08:30;11.65;;;9.32;;
38783;SDS011;24531;45.502;12.238;2023-05-07T06:10:56;10.30;;;7.65;;
38783;SDS011;24531;45.502;12.238;2023-05-07T06:13:22;11.40;;;6.55;;
38783;SDS011;24531;45.502;12.238;2023-05-07T06:15:48;8.48;;;6.25;;
38783;SDS011;24531;45.502;12.238;2023-05-07T06:18:14;8.05;;;6.13;;
38783;SDS011;24531;45.502;12.238;2023-05-07T06:20:39;6.43;;;5.28;;
38783;SDS011;24531;45.502;12.238;2023-05-07T06:23:05;8.15;;;5.43;;
38783;SDS011;24531;45.502;12.238;2023-05-07T06:25:31;6.95;;;5.85;;
38783;SDS011;24531;45.502;12.238;2023-05-07T06:27:56;6.32;;;4.70;;
38783;SDS011;24531;45.502;12.238;2023-05-07T06:30:22;6.93;;;4.38;;
38783;SDS011;24531;45.502;12.238;2023-05-07T06:32:47;8.43;;;4.43;;
38783;SDS011;24531;45.502;12.238;2023-05-07T06:35:13;5.68;;;4.35;;
38783;SDS011;24531;45.502;12.238;2023-05-07T06:37:38;4.68;;;3.75;;
38783;SDS011;24531;45.502;12.238;2023-05-07T06:40:05;7.22;;;3.67;;
38783;SDS011;24531;45.502;12.238;2023-05-07T06:42:32;4.43;;;3.33;;
38783;SDS011;24531;45.502;12.238;2023-05-07T06:44:57;5.18;;;3.70;;
38783;SDS011;24531;45.502;12.238;2023-05-07T06:47:23;5.10;;;3.72;;
38783;SDS011;24531;45.502;12.238;2023-05-07T06:49:48;5.28;;;3.95;;
38783;SDS011;24531;45.502;12.238;2023-05-07T06:52:14;5.32;;;4.20;;
38783;SDS011;24531;45.502;12.238;2023-05-07T06:54:40;4.40;;;3.90;;
38783;SDS011;24531;45.502;12.238;2023-05-07T06:57:05;7.60;;;3.78;;
38783;SDS011;24531;45.502;12.238;2023-05-07T06:59:32;4.50;;;3.75;;
38783;SDS011;24531;45.502;12.238;2023-05-07T07:01:57;10.05;;;4.30;;
38783;SDS011;24531;45.502;12.238;2023-05-07T07:04:23;5.60;;;4.03;;
38783;SDS011;24531;45.502;12.238;2023-05-07T07:06:49;5.70;;;3.80;;
38783;SDS011;24531;45.502;12.238;2023-05-07T07:09:16;7.57;;;3.78;;
38783;SDS011;24531;45.502;12.238;2023-05-07T07:11:42;7.05;;;3.63;;
38783;SDS011;24531;45.502;12.238;2023-05-07T07:14:07;6.57;;;3.30;;
38783;SDS011;24531;45.502;12.238;2023-05-07T07:16:33;5.75;;;3.63;;
38783;SDS011;24531;45.502;12.238;2023-05-07T07:18:59;4.75;;;3.65;;
38783;SDS011;24531;45.502;12.238;2023-05-07T07:21:24;4.10;;;3.60;;
38783;SDS011;24531;45.502;12.238;2023-05-07T07:23:50;7.03;;;3.67;;
38783;SDS011;24531;45.502;12.238;2023-05-07T07:26:17;4.95;;;3.95;;
38783;SDS011;24531;45.502;12.238;2023-05-07T07:28:45;5.30;;;3.92;;
38783;SDS011;24531;45.502;12.238;2023-05-07T07:31:11;4.18;;;3.08;;
38783;SDS011;24531;45.502;12.238;2023-05-07T07:33:37;6.65;;;3.47;;
38783;SDS011;24531;45.502;12.238;2023-05-07T07:36:05;4.68;;;3.65;;
38783;SDS011;24531;45.502;12.238;2023-05-07T07:38:31;8.00;;;3.63;;
38783;SDS011;24531;45.502;12.238;2023-05-07T07:40:57;8.20;;;3.70;;
38783;SDS011;24531;45.502;12.238;2023-05-07T07:43:22;5.70;;;3.97;;
38783;SDS011;24531;45.502;12.238;2023-05-07T07:45:48;5.43;;;3.95;;
38783;SDS011;24531;45.502;12.238;2023-05-07T07:48:14;5.65;;;3.40;;
38783;SDS011;24531;45.502;12.238;2023-05-07T07:50:39;5.60;;;3.38;;
38783;SDS011;24531;45.502;12.238;2023-05-07T07:53:05;5.15;;;3.60;;
38783;SDS011;24531;45.502;12.238;2023-05-07T07:55:30;4.80;;;3.85;;
38783;SDS011;24531;45.502;12.238;2023-05-07T07:57:57;6.13;;;3.78;;
38783;SDS011;24531;45.502;12.238;2023-05-07T08:00:22;6.35;;;3.13;;
38783;SDS011;24531;45.502;12.238;2023-05-07T08:02:48;4.03;;;3.45;;
38783;SDS011;24531;45.502;12.238;2023-05-07T08:05:14;6.25;;;4.30;;
38783;SDS011;24531;45.502;12.238;2023-05-07T08:07:40;5.18;;;3.67;;
38783;SDS011;24531;45.502;12.238;2023-05-07T08:10:05;5.25;;;4.00;;
38783;SDS011;24531;45.502;12.238;2023-05-07T08:12:31;7.55;;;4.20;;
38783;SDS011;24531;45.502;12.238;2023-05-07T08:14:57;5.10;;;3.80;;
38783;SDS011;24531;45.502;12.238;2023-05-07T08:17:23;4.95;;;3.65;;
38783;SDS011;24531;45.502;12.238;2023-05-07T08:19:48;6.80;;;3.50;;
38783;SDS011;24531;45.502;12.238;2023-05-07T08:22:14;6.93;;;4.05;;
38783;SDS011;24531;45.502;12.238;2023-05-07T08:24:40;4.40;;;3.38;;
38783;SDS011;24531;45.502;12.238;2023-05-07T08:27:06;4.68;;;3.08;;
38783;SDS011;24531;45.502;12.238;2023-05-07T08:29:31;5.05;;;3.00;;
38783;SDS011;24531;45.502;12.238;2023-05-07T08:31:57;5.93;;;3.13;;
38783;SDS011;24531;45.502;12.238;2023-05-07T08:34:23;4.00;;;3.13;;
38783;SDS011;24531;45.502;12.238;2023-05-07T08:36:48;4.38;;;3.10;;
38783;SDS011;24531;45.502;12.238;2023-05-07T08:39:17;3.40;;;2.80;;
38783;SDS011;24531;45.502;12.238;2023-05-07T08:41:44;4.90;;;3.20;;
38783;SDS011;24531;45.502;12.238;2023-05-07T08:44:13;3.42;;;3.03;;
38783;SDS011;24531;45.502;12.238;2023-05-07T08:46:41;3.90;;;3.15;;
38783;SDS011;24531;45.502;12.238;2023-05-07T08:49:07;3.10;;;2.67;;
38783;SDS011;24531;45.502;12.238;2023-05-07T08:51:33;5.72;;;3.55;;
38783;SDS011;24531;45.502;12.238;2023-05-07T08:54:00;7.53;;;3.20;;
38783;SDS011;24531;45.502;12.238;2023-05-07T08:56:26;4.10;;;3.10;;
38783;SDS011;24531;45.502;12.238;2023-05-07T08:58:52;5.30;;;3.83;;
38783;SDS011;24531;45.502;12.238;2023-05-07T09:01:21;4.88;;;3.45;;
38783;SDS011;24531;45.502;12.238;2023-05-07T09:03:47;5.72;;;3.25;;
38783;SDS011;24531;45.502;12.238;2023-05-07T09:06:13;5.20;;;3.50;;
38783;SDS011;24531;45.502;12.238;2023-05-07T09:08:39;5.20;;;3.40;;
38783;SDS011;24531;45.502;12.238;2023-05-07T09:11:04;5.50;;;3.15;;
38783;SDS011;24531;45.502;12.238;2023-05-07T09:13:30;4.68;;;2.72;;
38783;SDS011;24531;45.502;12.238;2023-05-07T09:15:56;5.53;;;3.28;;
38783;SDS011;24531;45.502;12.238;2023-05-07T09:18:23;4.25;;;3.10;;
38783;SDS011;24531;45.502;12.238;2023-05-07T09:20:49;4.40;;;3.05;;
38783;SDS011;24531;45.502;12.238;2023-05-07T09:23:15;2.72;;;2.13;;
38783;SDS011;24531;45.502;12.238;2023-05-07T09:25:41;4.57;;;2.33;;
38783;SDS011;24531;45.502;12.238;2023-05-07T09:28:07;3.20;;;2.45;;
38783;SDS011;24531;45.502;12.238;2023-05-07T09:30:33;3.60;;;2.53;;
38783;SDS011;24531;45.502;12.238;2023-05-07T09:33:00;3.25;;;2.33;;
38783;SDS011;24531;45.502;12.238;2023-05-07T09:35:27;5.15;;;2.90;;
38783;SDS011;24531;45.502;12.238;2023-05-07T09:37:56;2.75;;;2.42;;
38783;SDS011;24531;45.502;12.238;2023-05-07T09:40:24;6.30;;;2.90;;
38783;SDS011;24531;45.502;12.238;2023-05-07T09:42:52;4.13;;;2.67;;
38783;SDS011;24531;45.502;12.238;2023-05-07T09:45:36;4.65;;;2.72;;
38783;SDS011;24531;45.502;12.238;2023-05-07T09:48:04;2.85;;;2.50;;
38783;SDS011;24531;45.502;12.238;2023-05-07T09:50:39;5.28;;;2.60;;
38783;SDS011;24531;45.502;12.238;2023-05-07T09:53:13;4.57;;;2.80;;
38783;SDS011;24531;45.502;12.238;2023-05-07T09:55:41;6.05;;;2.70;;
38783;SDS011;24531;45.502;12.238;2023-05-07T09:58:07;3.83;;;2.75;;
38783;SDS011;24531;45.502;12.238;2023-05-07T10:00:34;4.55;;;2.55;;
38783;SDS011;24531;45.502;12.238;2023-05-07T10:03:01;4.53;;;2.80;;
38783;SDS011;24531;45.502;12.238;2023-05-07T10:05:27;4.07;;;2.75;;
38783;SDS011;24531;45.502;12.238;2023-05-07T10:07:54;4.07;;;3.00;;
38783;SDS011;24531;45.502;12.238;2023-05-07T10:10:20;3.38;;;3.03;;
38783;SDS011;24531;45.502;12.238;2023-05-07T10:12:47;3.85;;;2.83;;
38783;SDS011;24531;45.502;12.238;2023-05-07T10:15:12;4.15;;;3.10;;
38783;SDS011;24531;45.502;12.238;2023-05-07T10:17:39;3.65;;;2.90;;
38783;SDS011;24531;45.502;12.238;2023-05-07T10:20:06;5.13;;;3.25;;
38783;SDS011;24531;45.502;12.238;2023-05-07T10:22:37;6.18;;;3.20;;
38783;SDS011;24531;45.502;12.238;2023-05-07T10:27:53;4.35;;;2.92;;
38783;SDS011;24531;45.502;12.238;2023-05-07T10:33:06;7.20;;;3.33;;
38783;SDS011;24531;45.502;12.238;2023-05-07T10:35:42;4.10;;;2.92;;
38783;SDS011;24531;45.502;12.238;2023-05-07T10:38:09;3.72;;;2.85;;
38783;SDS011;24531;45.502;12.238;2023-05-07T10:40:36;10.75;;;3.03;;
38783;SDS011;24531;45.502;12.238;2023-05-07T10:43:02;5.13;;;2.58;;
38783;SDS011;24531;45.502;12.238;2023-05-07T10:45:32;7.15;;;2.67;;
38783;SDS011;24531;45.502;12.238;2023-05-07T10:50:37;7.82;;;2.60;;
38783;SDS011;24531;45.502;12.238;2023-05-07T10:55:51;5.13;;;2.70;;
38783;SDS011;24531;45.502;12.238;2023-05-07T10:58:37;4.88;;;2.88;;
38783;SDS011;24531;45.502;12.238;2023-05-07T11:01:03;2.63;;;2.10;;
38783;SDS011;24531;45.502;12.238;2023-05-07T11:03:29;4.00;;;2.17;;
38783;SDS011;24531;45.502;12.238;2023-05-07T11:06:14;3.85;;;2.30;;
38783;SDS011;24531;45.502;12.238;2023-05-07T11:08:53;3.03;;;2.33;;
38783;SDS011;24531;45.502;12.238;2023-05-07T11:11:20;4.28;;;3.30;;
38783;SDS011;24531;45.502;12.238;2023-05-07T11:17:05;2.33;;;1.85;;
38783;SDS011;24531;45.502;12.238;2023-05-07T11:25:05;3.92;;;2.40;;
38783;SDS011;24531;45.502;12.238;2023-05-07T11:27:31;2.65;;;2.00;;
38783;SDS011;24531;45.502;12.238;2023-05-07T11:29:58;4.93;;;2.75;;
38783;SDS011;24531;45.502;12.238;2023-05-07T11:32:29;4.15;;;2.17;;
38783;SDS011;24531;45.502;12.238;2023-05-07T11:34:59;6.60;;;2.60;;
38783;SDS011;24531;45.502;12.238;2023-05-07T11:37:26;5.43;;;2.80;;
38783;SDS011;24531;45.502;12.238;2023-05-07T11:40:04;4.10;;;2.97;;
38783;SDS011;24531;45.502;12.238;2023-05-07T11:42:32;6.53;;;3.22;;
38783;SDS011;24531;45.502;12.238;2023-05-07T11:44:59;3.67;;;2.90;;
38783;SDS011;24531;45.502;12.238;2023-05-07T11:47:25;3.85;;;2.30;;
38783;SDS011;24531;45.502;12.238;2023-05-07T11:49:54;5.47;;;2.22;;
38783;SDS011;24531;45.502;12.238;2023-05-07T11:52:21;4.57;;;2.50;;
38783;SDS011;24531;45.502;12.238;2023-05-07T11:54:49;3.80;;;2.63;;
38783;SDS011;24531;45.502;12.238;2023-05-07T11:57:15;2.42;;;2.20;;
38783;SDS011;24531;45.502;12.238;2023-05-07T11:59:41;4.45;;;2.42;;
38783;SDS011;24531;45.502;12.238;2023-05-07T12:02:09;4.03;;;2.95;;
38783;SDS011;24531;45.502;12.238;2023-05-07T12:04:35;2.80;;;2.30;;
38783;SDS011;24531;45.502;12.238;2023-05-07T12:07:00;2.58;;;2.38;;
38783;SDS011;24531;45.502;12.238;2023-05-07T12:09:26;3.83;;;2.85;;
38783;SDS011;24531;45.502;12.238;2023-05-07T12:11:52;3.85;;;2.45;;
38783;SDS011;24531;45.502;12.238;2023-05-07T12:14:18;3.55;;;2.20;;
38783;SDS011;24531;45.502;12.238;2023-05-07T12:16:44;4.50;;;2.63;;
38783;SDS011;24531;45.502;12.238;2023-05-07T12:19:10;6.55;;;2.67;;
38783;SDS011;24531;45.502;12.238;2023-05-07T12:21:39;3.20;;;2.13;;
38783;SDS011;24531;45.502;12.238;2023-05-07T12:24:05;3.25;;;2.00;;
38783;SDS011;24531;45.502;12.238;2023-05-07T12:26:33;3.97;;;2.22;;
38783;SDS011;24531;45.502;12.238;2023-05-07T12:29:03;2.83;;;2.00;;
38783;SDS011;24531;45.502;12.238;2023-05-07T12:31:28;1.60;;;1.50;;
38783;SDS011;24531;45.502;12.238;2023-05-07T12:33:54;4.15;;;2.10;;
38783;SDS011;24531;45.502;12.238;2023-05-07T12:36:19;2.00;;;1.80;;
38783;SDS011;24531;45.502;12.238;2023-05-07T12:38:46;6.72;;;2.03;;
38783;SDS011;24531;45.502;12.238;2023-05-07T12:41:15;4.78;;;1.88;;
38783;SDS011;24531;45.502;12.238;2023-05-07T12:43:43;1.83;;;1.67;;
38783;SDS011;24531;45.502;12.238;2023-05-07T12:46:10;2.40;;;2.10;;
38783;SDS011;24531;45.502;12.238;2023-05-07T12:48:38;2.75;;;1.67;;
38783;SDS011;24531;45.502;12.238;2023-05-07T12:51:10;3.83;;;1.70;;
38783;SDS011;24531;45.502;12.238;2023-05-07T12:53:41;5.68;;;2.08;;
38783;SDS011;24531;45.502;12.238;2023-05-07T12:56:07;4.53;;;1.73;;
38783;SDS011;24531;45.502;12.238;2023-05-07T12:58:34;2.33;;;1.50;;
38783;SDS011;24531;45.502;12.238;2023-05-07T13:01:03;3.15;;;2.17;;
38783;SDS011;24531;45.502;12.238;2023-05-07T13:03:31;3.50;;;1.88;;
38783;SDS011;24531;45.502;12.238;2023-05-07T13:05:59;2.38;;;2.17;;
38783;SDS011;24531;45.502;12.238;2023-05-07T13:11:06;4.43;;;1.50;;
38783;SDS011;24531;45.502;12.238;2023-05-07T13:13:33;3.40;;;1.67;;
38783;SDS011;24531;45.502;12.238;2023-05-07T13:16:03;6.60;;;2.03;;
38783;SDS011;24531;45.502;12.238;2023-05-07T13:18:31;4.55;;;1.42;;
38783;SDS011;24531;45.502;12.238;2023-05-07T13:20:57;2.10;;;1.65;;
38783;SDS011;24531;45.502;12.238;2023-05-07T13:23:23;2.35;;;1.75;;
38783;SDS011;24531;45.502;12.238;2023-05-07T13:25:49;4.50;;;1.50;;
38783;SDS011;24531;45.502;12.238;2023-05-07T13:28:15;3.22;;;2.05;;
38783;SDS011;24531;45.502;12.238;2023-05-07T13:30:41;6.18;;;1.90;;
38783;SDS011;24531;45.502;12.238;2023-05-07T13:33:08;4.40;;;1.20;;
38783;SDS011;24531;45.502;12.238;2023-05-07T13:35:34;3.83;;;1.70;;
38783;SDS011;24531;45.502;12.238;2023-05-07T13:38:00;2.80;;;1.73;;
38783;SDS011;24531;45.502;12.238;2023-05-07T13:40:26;5.82;;;2.13;;
38783;SDS011;24531;45.502;12.238;2023-05-07T13:42:51;2.85;;;1.65;;
38783;SDS011;24531;45.502;12.238;2023-05-07T13:45:18;2.50;;;1.70;;
38783;SDS011;24531;45.502;12.238;2023-05-07T13:47:44;2.75;;;1.85;;
38783;SDS011;24531;45.502;12.238;2023-05-07T13:50:10;4.88;;;1.77;;
38783;SDS011;24531;45.502;12.238;2023-05-07T13:52:38;3.78;;;2.58;;
38783;SDS011;24531;45.502;12.238;2023-05-07T13:55:06;3.28;;;1.80;;
38783;SDS011;24531;45.502;12.238;2023-05-07T13:57:32;4.85;;;1.90;;
38783;SDS011;24531;45.502;12.238;2023-05-07T13:59:57;3.78;;;2.15;;
38783;SDS011;24531;45.502;12.238;2023-05-07T14:02:23;2.55;;;1.98;;
38783;SDS011;24531;45.502;12.238;2023-05-07T14:04:49;4.82;;;2.17;;
38783;SDS011;24531;45.502;12.238;2023-05-07T14:07:14;4.32;;;1.90;;
38783;SDS011;24531;45.502;12.238;2023-05-07T14:09:40;3.40;;;2.17;;
38783;SDS011;24531;45.502;12.238;2023-05-07T14:12:06;3.67;;;2.25;;
38783;SDS011;24531;45.502;12.238;2023-05-07T14:14:32;4.15;;;2.05;;
38783;SDS011;24531;45.502;12.238;2023-05-07T14:16:58;2.58;;;1.80;;
38783;SDS011;24531;45.502;12.238;2023-05-07T14:19:23;3.85;;;2.17;;
38783;SDS011;24531;45.502;12.238;2023-05-07T14:21:49;3.60;;;2.42;;
38783;SDS011;24531;45.502;12.238;2023-05-07T14:24:14;3.15;;;2.25;;
38783;SDS011;24531;45.502;12.238;2023-05-07T14:26:40;3.78;;;2.30;;
38783;SDS011;24531;45.502;12.238;2023-05-07T14:29:05;2.60;;;1.67;;
38783;SDS011;24531;45.502;12.238;2023-05-07T14:31:31;2.55;;;1.73;;
38783;SDS011;24531;45.502;12.238;2023-05-07T14:33:58;6.15;;;2.00;;
38783;SDS011;24531;45.502;12.238;2023-05-07T14:36:24;3.40;;;2.20;;
38783;SDS011;24531;45.502;12.238;2023-05-07T14:38:51;3.25;;;2.03;;
38783;SDS011;24531;45.502;12.238;2023-05-07T14:41:18;2.30;;;1.45;;
38783;SDS011;24531;45.502;12.238;2023-05-07T14:43:43;2.97;;;1.80;;